Time;durP1;ratioP1;P1;durP2;ratioP2;P2;SDS_P1;SDS_P2;PMS_P1;PMS_P2;Temp;Humidity;BMP_temperature;BMP_pressure;BME280_temperature;BME280_humidity;BME280_pressure;Samples;Min_cycle;Max_cycle;Signal;HPM_P1;HPM_P2
2022/09/13 00:01:18;;;;;;;2.70;1.23;;;;;;;;;;5103704;28;20957;-71
2022/09/13 00:03:45;;;;;;;1.17;1.07;;;;;;;;;;5103856;28;20505;-73
2022/09/13 00:06:13;;;;;;;1.43;1.20;;;;;;;;;;5102027;28;20451;-71
2022/09/13 00:08:42;;;;;;;1.40;1.17;;;;;;;;;;5102454;28;20440;-72
2022/09/13 00:11:14;;;;;;;1.40;1.30;;;;;;;;;;5100295;28;20448;-72
2022/09/13 00:13:41;;;;;;;1.57;1.47;;;;;;;;;;5100043;28;20455;-72
2022/09/13 00:16:11;;;;;;;1.37;1.27;;;;;;;;;;5098627;28;20458;-72
2022/09/13 00:18:38;;;;;;;1.50;1.03;;;;;;;;;;5097828;28;20451;-72
2022/09/13 00:21:06;;;;;;;1.67;1.50;;;;;;;;;;5096115;28;20483;-71
2022/09/13 00:23:34;;;;;;;2.40;1.20;;;;;;;;;;5094229;28;20487;-71
2022/09/13 00:26:07;;;;;;;1.60;1.20;;;;;;;;;;5093045;28;20465;-72
2022/09/13 00:28:34;;;;;;;1.30;0.97;;;;;;;;;;5093728;28;20800;-72
2022/09/13 00:31:01;;;;;;;1.37;1.10;;;;;;;;;;5093856;28;20449;-72
2022/09/13 00:33:28;;;;;;;1.30;1.20;;;;;;;;;;5093157;28;20453;-71
2022/09/13 00:35:55;;;;;;;4.00;1.33;;;;;;;;;;5086230;28;20588;-72
2022/09/13 00:38:23;;;;;;;1.57;1.30;;;;;;;;;;5093396;28;20487;-71
2022/09/13 00:40:50;;;;;;;1.60;1.23;;;;;;;;;;5093632;28;20459;-73
2022/09/13 00:43:19;;;;;;;2.07;1.10;;;;;;;;;;5092864;28;20477;-72
2022/09/13 00:45:48;;;;;;;1.93;1.00;;;;;;;;;;5092380;28;20445;-72
2022/09/13 00:48:18;;;;;;;1.60;1.10;;;;;;;;;;5093083;28;20451;-73
2022/09/13 00:50:47;;;;;;;1.50;1.40;;;;;;;;;;5093496;28;20953;-73
2022/09/13 00:53:17;;;;;;;1.33;1.23;;;;;;;;;;5092745;28;20459;-72
2022/09/13 00:55:46;;;;;;;1.30;1.10;;;;;;;;;;5093403;28;20449;-73
2022/09/13 00:58:16;;;;;;;1.53;1.13;;;;;;;;;;5092996;28;20445;-72
2022/09/13 01:00:45;;;;;;;2.60;1.50;;;;;;;;;;5093326;28;20445;-73
2022/09/13 01:03:14;;;;;;;1.53;1.00;;;;;;;;;;5092283;28;20487;-72
2022/09/13 01:05:43;;;;;;;3.30;1.20;;;;;;;;;;5092901;28;20463;-73
2022/09/13 01:08:14;;;;;;;1.40;1.30;;;;;;;;;;5093507;28;20806;-73
2022/09/13 01:10:42;;;;;;;1.17;1.07;;;;;;;;;;5092796;28;20458;-73
2022/09/13 01:13:13;;;;;;;1.20;1.10;;;;;;;;;;5092927;28;20793;-72
2022/09/13 01:15:41;;;;;;;3.07;1.33;;;;;;;;;;5092791;28;20510;-72
2022/09/13 01:18:10;;;;;;;1.20;1.10;;;;;;;;;;5092497;28;20449;-73
2022/09/13 01:20:44;;;;;;;2.53;1.40;;;;;;;;;;5092069;28;20539;-73
2022/09/13 01:23:23;;;;;;;2.10;1.23;;;;;;;;;;5092240;28;20475;-72
2022/09/13 01:26:08;;;;;;;1.20;1.10;;;;;;;;;;5092249;28;20819;-72
2022/09/13 01:28:53;;;;;;;2.40;1.20;;;;;;;;;;5092097;28;20449;-73
2022/09/13 01:31:28;;;;;;;1.30;1.20;;;;;;;;;;5056076;28;20452;-73
2022/09/13 01:34:01;;;;;;;1.87;1.07;;;;;;;;;;5091628;28;20493;-72
2022/09/13 01:36:35;;;;;;;1.20;0.90;;;;;;;;;;5090823;28;20948;-73
2022/09/13 01:39:04;;;;;;;2.03;1.30;;;;;;;;;;5091962;28;20488;-73
2022/09/13 01:41:47;;;;;;;1.40;1.07;;;;;;;;;;5090279;28;20575;-72
2022/09/13 01:44:17;;;;;;;1.67;0.90;;;;;;;;;;5088282;28;20475;-72
2022/09/13 01:46:49;;;;;;;1.57;1.30;;;;;;;;;;5087186;28;20503;-73
2022/09/13 01:49:19;;;;;;;1.73;1.00;;;;;;;;;;5091419;28;20441;-72
2022/09/13 01:51:49;;;;;;;1.37;1.10;;;;;;;;;;5091354;28;20452;-72
2022/09/13 01:54:19;;;;;;;1.40;1.30;;;;;;;;;;5091328;28;20445;-72
2022/09/13 01:56:52;;;;;;;1.70;1.40;;;;;;;;;;5091522;28;20457;-72
2022/09/13 01:59:21;;;;;;;1.97;1.20;;;;;;;;;;5091282;28;20470;-72
2022/09/13 02:01:52;;;;;;;1.67;1.13;;;;;;;;;;5091225;28;20453;-73
2022/09/13 02:04:22;;;;;;;1.37;1.10;;;;;;;;;;5090421;28;20486;-73
2022/09/13 02:06:51;;;;;;;1.83;1.30;;;;;;;;;;5091200;28;20981;-72
2022/09/13 02:09:20;;;;;;;1.80;1.27;;;;;;;;;;5090660;28;20940;-72
2022/09/13 02:11:49;;;;;;;2.67;1.10;;;;;;;;;;5091293;28;20441;-72
2022/09/13 02:14:18;;;;;;;2.20;1.43;;;;;;;;;;5091154;28;20456;-71
2022/09/13 02:16:47;;;;;;;1.43;1.20;;;;;;;;;;5091341;28;20449;-72
2022/09/13 02:19:18;;;;;;;1.43;1.23;;;;;;;;;;5090838;28;20475;-72
2022/09/13 02:21:48;;;;;;;1.60;1.40;;;;;;;;;;5090789;28;20503;-73
2022/09/13 02:24:16;;;;;;;1.43;1.20;;;;;;;;;;5090359;28;20483;-71
2022/09/13 02:26:45;;;;;;;1.73;1.10;;;;;;;;;;5091198;28;20484;-72
2022/09/13 02:29:14;;;;;;;1.90;1.17;;;;;;;;;;5090910;28;20441;-71
2022/09/13 02:31:43;;;;;;;1.40;1.27;;;;;;;;;;5090915;28;20560;-72
2022/09/13 02:34:13;;;;;;;1.83;1.30;;;;;;;;;;5091068;28;20532;-71
2022/09/13 02:36:43;;;;;;;2.30;1.27;;;;;;;;;;5091112;28;20447;-72
2022/09/13 02:39:13;;;;;;;1.83;1.43;;;;;;;;;;5085714;28;20445;-72
2022/09/13 02:41:44;;;;;;;4.70;1.43;;;;;;;;;;5090799;28;20783;-71
2022/09/13 02:44:13;;;;;;;2.53;1.50;;;;;;;;;;5091376;28;20473;-71
2022/09/13 02:46:47;;;;;;;1.87;1.20;;;;;;;;;;5091086;28;20448;-71
2022/09/13 02:49:22;;;;;;;1.90;1.17;;;;;;;;;;5090274;28;20444;-71
2022/09/13 02:51:56;;;;;;;1.43;1.10;;;;;;;;;;5090497;28;20902;-71
2022/09/13 02:54:26;;;;;;;1.60;0.90;;;;;;;;;;5090577;28;20550;-72
2022/09/13 02:56:56;;;;;;;1.23;1.10;;;;;;;;;;5091067;28;20925;-71
2022/09/13 02:59:23;;;;;;;2.33;1.27;;;;;;;;;;5089940;28;20456;-71
2022/09/13 03:01:53;;;;;;;1.53;1.43;;;;;;;;;;5090679;28;20470;-71
2022/09/13 03:04:20;;;;;;;1.53;1.43;;;;;;;;;;5089715;28;20496;-71
2022/09/13 03:06:47;;;;;;;1.67;1.47;;;;;;;;;;5090758;28;20453;-72
2022/09/13 03:09:16;;;;;;;1.63;1.10;;;;;;;;;;5090715;28;20924;-72
2022/09/13 03:11:54;;;;;;;1.50;1.10;;;;;;;;;;5094767;28;20442;-72
2022/09/13 03:14:28;;;;;;;1.30;1.10;;;;;;;;;;5094177;28;20455;-71
2022/09/13 03:17:06;;;;;;;1.10;0.90;;;;;;;;;;5095312;28;20447;-72
2022/09/13 03:19:40;;;;;;;2.00;1.57;;;;;;;;;;5093960;28;20483;-71
2022/09/13 03:22:17;;;;;;;2.30;1.37;;;;;;;;;;5088130;28;20441;-72
2022/09/13 03:24:50;;;;;;;1.50;1.17;;;;;;;;;;5092782;28;20468;-72
2022/09/13 03:27:20;;;;;;;1.80;1.57;;;;;;;;;;5093993;28;20477;-72
2022/09/13 03:29:53;;;;;;;3.83;1.57;;;;;;;;;;5094844;28;20444;-73
2022/09/13 03:32:24;;;;;;;1.30;1.20;;;;;;;;;;5092946;28;20445;-71
2022/09/13 03:34:54;;;;;;;2.00;1.67;;;;;;;;;;5094838;28;20508;-72
2022/09/13 03:37:25;;;;;;;1.73;1.43;;;;;;;;;;5094211;28;20444;-71
2022/09/13 03:39:56;;;;;;;2.20;1.50;;;;;;;;;;5094664;28;20440;-72
2022/09/13 03:42:26;;;;;;;2.23;1.70;;;;;;;;;;5093438;28;20958;-71
2022/09/13 03:44:54;;;;;;;2.40;1.50;;;;;;;;;;5094561;28;20567;-71
2022/09/13 03:47:22;;;;;;;1.97;1.47;;;;;;;;;;5093774;28;20441;-71
2022/09/13 03:49:50;;;;;;;1.77;1.23;;;;;;;;;;5093932;28;20444;-71
2022/09/13 03:52:18;;;;;;;2.43;1.23;;;;;;;;;;5093249;28;20476;-71
2022/09/13 03:54:45;;;;;;;2.00;1.60;;;;;;;;;;5094226;28;20448;-72
2022/09/13 03:57:15;;;;;;;2.70;1.47;;;;;;;;;;5092581;28;20451;-69
2022/09/13 03:59:45;;;;;;;2.10;1.63;;;;;;;;;;5091247;28;21104;-73
2022/09/13 04:02:12;;;;;;;12.73;1.60;;;;;;;;;;5091756;28;20463;-76
2022/09/13 04:04:40;;;;;;;3.60;1.73;;;;;;;;;;5093762;28;20520;-72
2022/09/13 04:07:07;;;;;;;3.30;1.60;;;;;;;;;;5094415;28;20525;-73
2022/09/13 04:09:34;;;;;;;2.50;1.40;;;;;;;;;;5093032;28;20877;-71
2022/09/13 04:12:02;;;;;;;1.63;1.50;;;;;;;;;;5093669;28;20449;-71
2022/09/13 04:14:30;;;;;;;1.40;1.27;;;;;;;;;;5093163;28;20453;-72
2022/09/13 04:16:58;;;;;;;1.83;1.60;;;;;;;;;;5093065;28;20457;-71
2022/09/13 04:19:26;;;;;;;1.27;1.00;;;;;;;;;;5092517;28;20452;-73
2022/09/13 04:21:54;;;;;;;1.60;1.50;;;;;;;;;;5093233;28;20437;-73
2022/09/13 04:24:24;;;;;;;4.03;2.07;;;;;;;;;;5092148;28;20567;-74
2022/09/13 04:26:52;;;;;;;1.83;1.50;;;;;;;;;;5093186;28;20480;-73
2022/09/13 04:29:19;;;;;;;2.63;1.60;;;;;;;;;;5092976;28;20444;-73
2022/09/13 04:31:47;;;;;;;2.87;2.10;;;;;;;;;;5093996;28;20463;-72
2022/09/13 04:34:17;;;;;;;3.07;2.10;;;;;;;;;;5092856;28;20445;-74
2022/09/13 04:36:44;;;;;;;5.70;4.00;;;;;;;;;;5093583;28;20452;-74
2022/09/13 04:39:12;;;;;;;2.53;2.03;;;;;;;;;;5093131;28;20449;-71
2022/09/13 04:41:40;;;;;;;3.83;1.70;;;;;;;;;;5093903;28;20549;-73
2022/09/13 04:44:07;;;;;;;3.20;1.90;;;;;;;;;;5092601;28;20481;-73
2022/09/13 04:46:34;;;;;;;2.73;1.40;;;;;;;;;;5092020;28;20551;-74
2022/09/13 04:49:02;;;;;;;3.10;1.40;;;;;;;;;;5093050;28;20958;-74
2022/09/13 04:51:29;;;;;;;1.57;1.30;;;;;;;;;;5092561;28;20904;-73
2022/09/13 04:53:57;;;;;;;1.67;1.50;;;;;;;;;;5093422;28;20460;-73
2022/09/13 04:56:24;;;;;;;1.90;1.67;;;;;;;;;;5079274;28;20441;-73
2022/09/13 04:58:52;;;;;;;2.40;1.90;;;;;;;;;;5093285;28;20448;-74
2022/09/13 05:01:19;;;;;;;2.53;1.83;;;;;;;;;;5092517;28;20944;-74
2022/09/13 05:03:46;;;;;;;6.37;1.87;;;;;;;;;;5093021;28;21020;-74
2022/09/13 05:06:16;;;;;;;4.17;1.90;;;;;;;;;;5092447;28;20464;-73
2022/09/13 05:08:44;;;;;;;1.87;1.37;;;;;;;;;;5093655;28;20441;-74
2022/09/13 05:11:11;;;;;;;2.17;1.60;;;;;;;;;;5093535;28;20447;-74
2022/09/13 05:13:38;;;;;;;2.20;1.57;;;;;;;;;;5092484;28;20531;-74
2022/09/13 05:16:06;;;;;;;2.77;2.37;;;;;;;;;;5092444;28;20922;-74
2022/09/13 05:18:34;;;;;;;1.50;1.40;;;;;;;;;;5096285;28;20464;-74
2022/09/13 05:21:02;;;;;;;3.53;2.43;;;;;;;;;;5098714;28;20441;-75
2022/09/13 05:23:31;;;;;;;2.10;1.90;;;;;;;;;;5094214;28;20464;-75
2022/09/13 05:25:59;;;;;;;5.50;2.00;;;;;;;;;;5092194;28;20495;-74
2022/09/13 05:28:27;;;;;;;3.90;1.53;;;;;;;;;;5096096;28;20437;-74
2022/09/13 05:30:55;;;;;;;2.07;1.17;;;;;;;;;;5095734;28;20449;-76
2022/09/13 05:33:22;;;;;;;2.70;1.50;;;;;;;;;;5094050;28;20447;-75
2022/09/13 05:35:50;;;;;;;2.80;1.87;;;;;;;;;;5094869;28;20452;-75
2022/09/13 05:38:17;;;;;;;1.93;1.77;;;;;;;;;;5092908;28;20453;-74
2022/09/13 05:40:46;;;;;;;1.70;1.43;;;;;;;;;;5095917;28;20448;-73
2022/09/13 05:43:13;;;;;;;2.30;1.70;;;;;;;;;;5094939;28;20449;-74
2022/09/13 05:45:41;;;;;;;2.70;2.30;;;;;;;;;;5079397;28;20492;-75
2022/09/13 05:48:08;;;;;;;2.47;2.07;;;;;;;;;;5092245;28;20452;-74
2022/09/13 05:50:37;;;;;;;4.43;1.93;;;;;;;;;;5091521;28;20535;-74
2022/09/13 05:53:05;;;;;;;2.40;1.70;;;;;;;;;;5092254;28;20449;-74
2022/09/13 05:55:32;;;;;;;1.60;1.50;;;;;;;;;;5090950;28;20457;-75
2022/09/13 05:58:02;;;;;;;1.80;1.50;;;;;;;;;;5092183;28;20457;-74
2022/09/13 06:00:30;;;;;;;2.10;1.90;;;;;;;;;;5091535;28;20477;-74
2022/09/13 06:02:57;;;;;;;2.17;1.67;;;;;;;;;;5092210;28;20464;-75
2022/09/13 06:05:25;;;;;;;2.13;1.83;;;;;;;;;;5091006;28;20501;-74
2022/09/13 06:07:52;;;;;;;2.13;1.93;;;;;;;;;;5092500;28;20451;-73
2022/09/13 06:10:20;;;;;;;2.40;1.93;;;;;;;;;;5091745;28;20458;-73
2022/09/13 06:12:47;;;;;;;2.53;2.33;;;;;;;;;;5091902;28;20988;-74
2022/09/13 06:15:16;;;;;;;2.60;1.80;;;;;;;;;;5091469;28;20448;-73
2022/09/13 06:17:43;;;;;;;3.80;2.20;;;;;;;;;;5091640;28;20454;-75
2022/09/13 06:20:10;;;;;;;5.10;2.10;;;;;;;;;;5091814;28;20472;-74
2022/09/13 06:22:37;;;;;;;2.40;2.00;;;;;;;;;;5090982;28;20954;-75
2022/09/13 06:25:05;;;;;;;4.70;2.60;;;;;;;;;;5090940;28;20558;-75
2022/09/13 06:27:32;;;;;;;3.40;1.83;;;;;;;;;;5090998;28;20472;-75
2022/09/13 06:29:59;;;;;;;2.27;1.50;;;;;;;;;;5091414;28;20449;-74
2022/09/13 06:32:28;;;;;;;3.13;2.07;;;;;;;;;;5091058;28;20748;-74
2022/09/13 06:34:55;;;;;;;2.07;1.87;;;;;;;;;;5090755;28;20463;-74
2022/09/13 06:37:22;;;;;;;2.07;1.87;;;;;;;;;;5091087;28;20536;-75
2022/09/13 06:39:49;;;;;;;2.20;1.70;;;;;;;;;;5091530;28;20456;-74
2022/09/13 06:42:16;;;;;;;2.17;1.80;;;;;;;;;;5091008;28;20445;-74
2022/09/13 06:44:44;;;;;;;2.13;1.90;;;;;;;;;;5090274;28;20662;-74
2022/09/13 06:47:12;;;;;;;2.60;1.80;;;;;;;;;;5091844;28;20459;-74
2022/09/13 06:49:40;;;;;;;4.53;2.20;;;;;;;;;;5091198;28;20445;-74
2022/09/13 06:52:07;;;;;;;4.33;1.97;;;;;;;;;;5091613;28;20953;-75
2022/09/13 06:54:34;;;;;;;3.60;1.90;;;;;;;;;;5090295;28;20520;-74
2022/09/13 06:57:03;;;;;;;3.10;2.17;;;;;;;;;;5091374;28;20447;-75
2022/09/13 06:59:30;;;;;;;3.17;2.07;;;;;;;;;;5090691;28;20453;-74
2022/09/13 07:01:57;;;;;;;2.37;2.17;;;;;;;;;;5091206;28;20441;-74
2022/09/13 07:04:24;;;;;;;2.20;2.00;;;;;;;;;;5090049;28;20840;-74
2022/09/13 07:06:53;;;;;;;4.00;1.60;;;;;;;;;;5084168;28;20495;-75
2022/09/13 07:09:21;;;;;;;2.23;2.00;;;;;;;;;;5090111;28;20986;-74
2022/09/13 07:11:49;;;;;;;2.77;2.10;;;;;;;;;;5091433;28;20543;-74
2022/09/13 07:14:17;;;;;;;6.80;1.93;;;;;;;;;;5090410;28;20444;-74
2022/09/13 07:16:45;;;;;;;3.20;2.10;;;;;;;;;;5091182;28;20476;-74
2022/09/13 07:19:14;;;;;;;3.03;2.10;;;;;;;;;;5091301;28;20455;-75
2022/09/13 07:21:41;;;;;;;4.00;2.70;;;;;;;;;;5090867;28;20454;-75
2022/09/13 07:24:10;;;;;;;10.13;2.00;;;;;;;;;;5090738;28;20444;-74
2022/09/13 07:26:37;;;;;;;3.13;2.17;;;;;;;;;;5090410;28;20473;-75
2022/09/13 07:29:05;;;;;;;3.40;2.10;;;;;;;;;;5090920;28;20832;-75
2022/09/13 07:31:34;;;;;;;2.60;1.83;;;;;;;;;;5090445;28;20536;-75
2022/09/13 07:34:02;;;;;;;4.87;2.13;;;;;;;;;;5090519;28;20463;-75
2022/09/13 07:36:30;;;;;;;4.07;1.63;;;;;;;;;;5089973;28;20444;-75
2022/09/13 07:38:58;;;;;;;2.13;1.73;;;;;;;;;;5091025;28;20444;-75
2022/09/13 07:41:27;;;;;;;8.03;2.30;;;;;;;;;;5090232;28;20441;-75
2022/09/13 07:43:54;;;;;;;6.20;1.40;;;;;;;;;;5090751;28;20452;-75
2022/09/13 07:46:22;;;;;;;3.90;1.80;;;;;;;;;;5089755;28;20492;-75
2022/09/13 07:48:49;;;;;;;2.13;1.73;;;;;;;;;;5090651;28;20452;-74
2022/09/13 07:51:18;;;;;;;2.83;1.60;;;;;;;;;;5089890;28;20814;-74
2022/09/13 07:53:46;;;;;;;2.83;2.00;;;;;;;;;;5090496;28;20535;-75
2022/09/13 07:56:14;;;;;;;1.70;1.60;;;;;;;;;;5092635;28;20460;-75
2022/09/13 07:58:43;;;;;;;1.50;1.40;;;;;;;;;;5094710;28;20519;-76
2022/09/13 08:01:12;;;;;;;3.40;1.90;;;;;;;;;;5094652;28;20447;-75
2022/09/13 08:03:40;;;;;;;3.13;1.77;;;;;;;;;;5094148;28;20437;-74
2022/09/13 08:06:07;;;;;;;2.30;1.67;;;;;;;;;;5094124;28;20480;-75
2022/09/13 08:08:35;;;;;;;2.13;1.40;;;;;;;;;;5093140;28;20471;-75
2022/09/13 08:11:02;;;;;;;1.60;1.40;;;;;;;;;;5094059;28;20455;-76
2022/09/13 08:13:31;;;;;;;2.70;2.50;;;;;;;;;;5093216;28;20456;-75
2022/09/13 08:16:01;;;;;;;2.80;1.30;;;;;;;;;;5093645;28;20452;-75
2022/09/13 08:18:28;;;;;;;2.40;1.47;;;;;;;;;;5093014;28;20452;-75
2022/09/13 08:20:56;;;;;;;1.40;1.30;;;;;;;;;;5094039;28;20440;-75
2022/09/13 08:23:24;;;;;;;3.87;2.07;;;;;;;;;;5092971;28;20928;-75
2022/09/13 08:25:51;;;;;;;1.97;1.40;;;;;;;;;;5093081;28;20569;-75
2022/09/13 08:28:20;;;;;;;2.93;1.30;;;;;;;;;;5093371;28;20440;-75
2022/09/13 08:30:47;;;;;;;1.60;1.10;;;;;;;;;;5093609;28;20936;-75
2022/09/13 08:33:16;;;;;;;3.80;1.40;;;;;;;;;;5093126;28;20452;-73
2022/09/13 08:35:50;;;;;;;1.90;1.63;;;;;;;;;;5093739;28;20463;-75
2022/09/13 08:38:17;;;;;;;2.23;1.70;;;;;;;;;;5093179;28;20465;-75
2022/09/13 08:40:46;;;;;;;2.10;1.77;;;;;;;;;;5093503;28;20460;-75
2022/09/13 08:43:17;;;;;;;1.60;1.50;;;;;;;;;;5093799;28;20529;-75
2022/09/13 08:45:49;;;;;;;2.10;1.90;;;;;;;;;;5093519;28;20475;-75
2022/09/13 08:48:20;;;;;;;2.00;1.80;;;;;;;;;;5079644;28;20448;-75
2022/09/13 08:50:48;;;;;;;2.90;1.50;;;;;;;;;;5093236;28;20454;-75
2022/09/13 08:53:20;;;;;;;1.80;1.30;;;;;;;;;;5092937;28;20459;-74
2022/09/13 08:55:50;;;;;;;1.77;1.53;;;;;;;;;;5092555;28;20456;-75
2022/09/13 08:58:28;;;;;;;3.07;1.87;;;;;;;;;;5092721;28;20445;-75
2022/09/13 09:00:59;;;;;;;2.50;1.90;;;;;;;;;;5093575;28;20448;-75
2022/09/13 09:03:32;;;;;;;1.80;1.70;;;;;;;;;;5092618;28;20444;-73
2022/09/13 09:06:00;;;;;;;1.73;1.30;;;;;;;;;;5092450;28;20500;-73
2022/09/13 09:08:31;;;;;;;2.20;1.70;;;;;;;;;;5091305;28;20465;-75
2022/09/13 09:10:59;;;;;;;1.40;1.10;;;;;;;;;;5093128;28;20448;-75
2022/09/13 09:13:28;;;;;;;2.77;1.60;;;;;;;;;;5092348;28;20935;-75
2022/09/13 09:15:57;;;;;;;1.60;1.43;;;;;;;;;;5092845;28;20456;-76
2022/09/13 09:18:25;;;;;;;1.87;1.67;;;;;;;;;;5092283;28;20456;-76
2022/09/13 09:20:55;;;;;;;1.77;1.20;;;;;;;;;;5092989;28;20583;-76
2022/09/13 09:23:24;;;;;;;1.37;1.20;;;;;;;;;;5092263;28;20437;-76
2022/09/13 09:25:52;;;;;;;2.57;1.70;;;;;;;;;;5092173;28;20845;-76
2022/09/13 09:28:20;;;;;;;2.30;2.00;;;;;;;;;;5092172;28;20791;-76
2022/09/13 09:30:55;;;;;;;3.37;2.20;;;;;;;;;;5092867;28;20449;-76
2022/09/13 09:33:31;;;;;;;3.20;2.30;;;;;;;;;;5092026;28;20441;-76
2022/09/13 09:36:04;;;;;;;2.43;2.17;;;;;;;;;;5092698;28;20544;-76
2022/09/13 09:38:38;;;;;;;2.47;2.27;;;;;;;;;;5091729;28;20435;-76
2022/09/13 09:41:08;;;;;;;3.17;2.40;;;;;;;;;;5092688;28;20445;-73
2022/09/13 09:43:39;;;;;;;1.73;1.63;;;;;;;;;;5092107;28;20501;-73
2022/09/13 09:46:07;;;;;;;2.93;1.83;;;;;;;;;;5091843;28;20518;-74
2022/09/13 09:48:38;;;;;;;2.33;1.80;;;;;;;;;;5091305;28;20459;-73
2022/09/13 09:51:09;;;;;;;3.80;2.13;;;;;;;;;;5092223;28;20461;-74
2022/09/13 09:53:38;;;;;;;2.50;1.87;;;;;;;;;;5091807;28;20445;-74
2022/09/13 09:56:07;;;;;;;2.80;2.30;;;;;;;;;;5091927;28;20532;-74
2022/09/13 09:58:39;;;;;;;2.73;1.77;;;;;;;;;;5091437;28;20879;-74
2022/09/13 10:01:06;;;;;;;2.70;1.77;;;;;;;;;;5091919;28;20441;-74
2022/09/13 10:03:35;;;;;;;2.60;1.80;;;;;;;;;;5091529;28;20449;-74
2022/09/13 10:06:08;;;;;;;2.50;1.70;;;;;;;;;;5091001;28;20492;-74
2022/09/13 10:08:36;;;;;;;1.70;1.60;;;;;;;;;;5091399;28;20523;-74
2022/09/13 10:11:04;;;;;;;2.77;1.80;;;;;;;;;;5091776;28;20936;-74
2022/09/13 10:13:32;;;;;;;2.97;2.47;;;;;;;;;;5091467;28;20449;-73
2022/09/13 10:16:00;;;;;;;2.13;1.67;;;;;;;;;;5091524;28;20462;-73
2022/09/13 10:18:28;;;;;;;2.27;1.67;;;;;;;;;;5090757;28;20441;-73
2022/09/13 10:21:02;;;;;;;5.87;1.60;;;;;;;;;;5091726;28;20811;-74
2022/09/13 10:23:31;;;;;;;1.80;1.63;;;;;;;;;;5091127;28;20535;-74
2022/09/13 10:26:04;;;;;;;3.50;1.90;;;;;;;;;;5091252;28;20579;-76
2022/09/13 10:28:32;;;;;;;4.50;1.70;;;;;;;;;;5091011;28;20867;-76
2022/09/13 10:31:02;;;;;;;2.17;1.80;;;;;;;;;;5091696;28;20455;-77
2022/09/13 10:33:30;;;;;;;5.40;1.67;;;;;;;;;;5090868;28;20455;-76
2022/09/13 10:35:59;;;;;;;3.40;1.90;;;;;;;;;;5091189;28;20465;-76
2022/09/13 10:38:29;;;;;;;1.97;1.53;;;;;;;;;;5090447;28;20928;-76
2022/09/13 10:40:58;;;;;;;2.17;1.90;;;;;;;;;;5091669;28;20445;-76
2022/09/13 10:43:27;;;;;;;3.27;3.07;;;;;;;;;;5077639;28;20458;-76
2022/09/13 10:45:55;;;;;;;1.60;1.50;;;;;;;;;;5090907;28;20490;-76
2022/09/13 10:48:23;;;;;;;3.27;1.50;;;;;;;;;;5090902;28;20436;-73
2022/09/13 10:51:04;;;;;;;5.33;1.73;;;;;;;;;;5090855;28;20460;-73
2022/09/13 10:53:33;;;;;;;1.97;1.40;;;;;;;;;;5090656;28;20448;-74
2022/09/13 10:56:02;;;;;;;1.40;1.30;;;;;;;;;;5090917;28;20456;-74
2022/09/13 10:58:29;;;;;;;2.90;1.70;;;;;;;;;;5090498;28;20441;-74
2022/09/13 11:01:16;;;;;;;2.50;2.10;;;;;;;;;;5090590;28;20807;-74
2022/09/13 11:03:51;;;;;;;2.77;1.70;;;;;;;;;;5090706;28;20448;-72
2022/09/13 11:06:23;;;;;;;1.50;1.40;;;;;;;;;;5090537;28;20472;-73
2022/09/13 11:08:55;;;;;;;2.23;1.30;;;;;;;;;;5091012;28;20490;-74
2022/09/13 11:11:26;;;;;;;1.57;1.47;;;;;;;;;;5090547;28;20436;-73
2022/09/13 11:13:59;;;;;;;1.50;1.40;;;;;;;;;;5090608;28;20447;-74
2022/09/13 11:16:35;;;;;;;1.67;1.47;;;;;;;;;;5090592;28;20803;-74
2022/09/13 11:19:08;;;;;;;2.00;1.40;;;;;;;;;;5090689;28;20443;-74
2022/09/13 11:21:42;;;;;;;1.23;1.10;;;;;;;;;;5090043;28;20947;-73
2022/09/13 11:24:14;;;;;;;2.07;1.77;;;;;;;;;;5090702;28;20442;-77
2022/09/13 11:26:54;;;;;;;1.40;1.20;;;;;;;;;;5090908;28;20502;-74
2022/09/13 11:29:28;;;;;;;1.70;1.27;;;;;;;;;;5090430;28;20456;-73
2022/09/13 11:32:01;;;;;;;2.00;1.23;;;;;;;;;;5094330;28;20475;-74
2022/09/13 11:34:43;;;;;;;1.90;1.40;;;;;;;;;;5093500;28;20927;-73
2022/09/13 11:37:16;;;;;;;1.50;1.27;;;;;;;;;;5083089;28;20807;-77
2022/09/13 11:39:47;;;;;;;1.73;1.63;;;;;;;;;;5094846;28;20444;-74
2022/09/13 11:42:24;;;;;;;1.90;1.30;;;;;;;;;;5094157;28;20780;-72
2022/09/13 11:45:03;;;;;;;2.10;1.63;;;;;;;;;;5094309;28;20467;-74
2022/09/13 11:47:35;;;;;;;2.10;1.50;;;;;;;;;;5094000;28;20476;-74
2022/09/13 11:50:10;;;;;;;1.37;1.20;;;;;;;;;;5081398;28;20458;-74
2022/09/13 11:52:43;;;;;;;1.30;1.10;;;;;;;;;;5093812;28;20448;-74
2022/09/13 11:55:15;;;;;;;2.67;1.20;;;;;;;;;;5093863;28;20451;-75
2022/09/13 11:57:45;;;;;;;1.20;1.10;;;;;;;;;;5094598;28;20440;-74
2022/09/13 12:00:16;;;;;;;1.20;1.10;;;;;;;;;;5094439;28;20498;-75
2022/09/13 12:02:46;;;;;;;1.27;0.90;;;;;;;;;;5094437;28;20439;-74
2022/09/13 12:05:16;;;;;;;1.87;1.23;;;;;;;;;;5093768;28;20849;-74
2022/09/13 12:07:46;;;;;;;2.30;1.60;;;;;;;;;;5094112;28;20471;-75
2022/09/13 12:10:17;;;;;;;3.90;1.33;;;;;;;;;;5093820;28;20560;-74
2022/09/13 12:12:48;;;;;;;1.70;1.60;;;;;;;;;;5094268;28;20523;-74
2022/09/13 12:15:17;;;;;;;1.50;1.40;;;;;;;;;;5092645;28;20436;-75
2022/09/13 12:17:46;;;;;;;2.30;1.17;;;;;;;;;;5093755;28;20876;-75
2022/09/13 12:20:18;;;;;;;2.10;1.50;;;;;;;;;;5093656;28;20820;-75
2022/09/13 12:22:46;;;;;;;1.93;1.53;;;;;;;;;;5094085;28;20795;-75
2022/09/13 12:25:19;;;;;;;1.20;1.10;;;;;;;;;;5093463;28;20805;-75
2022/09/13 12:27:51;;;;;;;1.70;1.20;;;;;;;;;;5093858;28;20507;-74
2022/09/13 12:30:19;;;;;;;2.33;1.30;;;;;;;;;;5093092;28;20490;-75
2022/09/13 12:32:47;;;;;;;2.13;1.23;;;;;;;;;;5093529;28;20205;-75
2022/09/13 12:35:20;;;;;;;1.10;1.00;;;;;;;;;;5092431;28;20661;-73
2022/09/13 12:37:56;;;;;;;2.13;1.30;;;;;;;;;;5093635;28;20224;-74
2022/09/13 12:40:42;;;;;;;2.63;1.30;;;;;;;;;;5092979;28;20255;-77
2022/09/13 12:43:27;;;;;;;1.20;1.10;;;;;;;;;;5092036;28;20285;-75
2022/09/13 12:46:02;;;;;;;1.30;1.13;;;;;;;;;;5092122;28;20217;-75
2022/09/13 12:48:49;;;;;;;1.23;1.10;;;;;;;;;;5092895;28;20247;-76
2022/09/13 12:51:22;;;;;;;1.50;1.40;;;;;;;;;;5092535;28;20223;-75
2022/09/13 12:54:02;;;;;;;1.20;1.10;;;;;;;;;;5092977;28;20204;-75
2022/09/13 12:56:41;;;;;;;1.20;1.10;;;;;;;;;;5092466;28;20264;-75
2022/09/13 12:59:26;;;;;;;1.23;1.10;;;;;;;;;;5093207;28;20190;-76
2022/09/13 13:01:54;;;;;;;1.53;1.10;;;;;;;;;;5093039;28;20549;-75
2022/09/13 13:04:23;;;;;;;1.50;1.20;;;;;;;;;;5091869;28;20202;-76
2022/09/13 13:06:51;;;;;;;1.97;1.10;;;;;;;;;;5092998;28;20598;-75
2022/09/13 13:09:24;;;;;;;1.57;1.20;;;;;;;;;;5091995;28;20197;-75
2022/09/13 13:11:53;;;;;;;1.70;1.40;;;;;;;;;;5092784;28;20610;-75
2022/09/13 13:14:29;;;;;;;2.50;1.17;;;;;;;;;;5091636;28;20695;-75
2022/09/13 13:17:17;;;;;;;1.35;1.20;;;;;;;;;;5092590;28;20198;-75
2022/09/13 13:19:44;;;;;;;1.60;1.07;;;;;;;;;;5092845;28;20221;-74
2022/09/13 13:22:30;;;;;;;1.88;0.90;;;;;;;;;;5092916;28;20600;-75
2022/09/13 13:24:57;;;;;;;2.50;1.27;;;;;;;;;;5092449;28;20198;-75
2022/09/13 13:27:36;;;;;;;2.28;1.52;;;;;;;;;;5091655;28;20237;-75
2022/09/13 13:30:27;;;;;;;1.50;1.10;;;;;;;;;;5092458;28;20197;-76
2022/09/13 13:33:13;;;;;;;1.45;0.93;;;;;;;;;;5072791;28;20205;-75
2022/09/13 13:35:41;;;;;;;1.73;1.10;;;;;;;;;;5092203;28;20213;-75
2022/09/13 13:38:31;;;;;;;0.93;0.82;;;;;;;;;;5092461;28;20225;-75
2022/09/13 13:41:08;;;;;;;0.88;0.73;;;;;;;;;;5092748;28;20599;-76
2022/09/13 13:43:36;;;;;;;1.33;1.20;;;;;;;;;;5079635;28;20193;-75
2022/09/13 13:46:22;;;;;;;0.98;0.90;;;;;;;;;;5092374;28;20202;-76
2022/09/13 13:48:50;;;;;;;1.92;0.93;;;;;;;;;;5092709;28;20193;-75
2022/09/13 13:51:19;;;;;;;0.85;0.77;;;;;;;;;;5091489;28;20198;-75
2022/09/13 13:53:48;;;;;;;0.82;0.70;;;;;;;;;;5091178;28;20198;-76
2022/09/13 13:56:20;;;;;;;1.00;0.70;;;;;;;;;;5091583;28;20198;-75
2022/09/13 13:58:50;;;;;;;1.20;1.10;;;;;;;;;;5092340;28;20205;-76
2022/09/13 14:01:19;;;;;;;1.10;1.00;;;;;;;;;;5091341;28;20202;-75
2022/09/13 14:03:53;;;;;;;1.27;0.82;;;;;;;;;;5091714;28;20202;-76
2022/09/13 14:06:27;;;;;;;2.03;1.38;;;;;;;;;;5091004;28;20653;-76
2022/09/13 14:08:59;;;;;;;1.33;0.82;;;;;;;;;;5091510;28;20201;-76
2022/09/13 14:11:34;;;;;;;1.58;1.20;;;;;;;;;;5091126;28;20194;-76
2022/09/13 14:14:08;;;;;;;1.35;1.00;;;;;;;;;;5091631;28;20198;-77
2022/09/13 14:16:41;;;;;;;1.02;0.93;;;;;;;;;;5091250;28;20206;-76
2022/09/13 14:19:22;;;;;;;0.90;0.80;;;;;;;;;;5078085;28;20194;-76
2022/09/13 14:22:05;;;;;;;0.90;0.70;;;;;;;;;;5091914;28;20319;-75
2022/09/13 14:24:37;;;;;;;0.80;0.80;;;;;;;;;;5090579;28;20195;-76
2022/09/13 14:27:04;;;;;;;1.13;1.02;;;;;;;;;;5091688;28;20667;-75
2022/09/13 14:29:31;;;;;;;1.40;1.00;;;;;;;;;;5091019;28;20202;-75
2022/09/13 14:32:03;;;;;;;1.08;0.95;;;;;;;;;;5091435;28;20209;-75
2022/09/13 14:34:34;;;;;;;0.73;0.70;;;;;;;;;;5090092;28;20198;-75
2022/09/13 14:37:02;;;;;;;1.10;0.90;;;;;;;;;;5078483;28;20213;-75
2022/09/13 14:39:29;;;;;;;1.50;0.90;;;;;;;;;;5090828;28;20251;-75
2022/09/13 14:42:00;;;;;;;0.93;0.70;;;;;;;;;;5091246;28;20230;-75
2022/09/13 14:44:29;;;;;;;1.17;1.10;;;;;;;;;;5090378;28;20198;-75
2022/09/13 14:47:00;;;;;;;1.13;0.95;;;;;;;;;;5091440;28;20325;-75
2022/09/13 14:49:28;;;;;;;1.95;1.20;;;;;;;;;;5090801;28;20205;-76
2022/09/13 14:51:58;;;;;;;0.98;0.85;;;;;;;;;;5093204;28;20198;-76
2022/09/13 14:54:34;;;;;;;1.15;1.00;;;22.20;1.00;;;;;;5089979;28;20206;-77
2022/09/13 14:57:02;;;;;;;1.20;1.10;;;30.20;1.00;;;;;;5091245;28;20209;-77
2022/09/13 14:59:32;;;;;;;2.30;2.10;;;29.90;1.00;;;;;;5090456;28;20280;-76